Ana Sayfa
METAR-TAF:

METAR-TAF

Havaalanları :

Aberdeen, Maryland, Amerika Birleşik Devletleri

Enlem: 39-28N, Boylam: 076-10W, yükseklik: 18 m

Güncel hava durumu gözlemi

Rapor saat 06:58 UTC de 24 dakika önce yapıldı.
Rüzgar batıdan 6 kt
Sıcaklık 0°C
Nem 47%
Basınç 1013 hPa
Görüş mesafesi: 16.1 km
Açık gökyüzü

METAR: KAPG 290658Z AUTO 28006KT 10SM CLR 00/M10 A2991 RMK AO2 SLP132 T10041101 PNO TSNO $

Saat: 02:22 (07:22 UTC)


TAF: eksik

4.000'den fazla havaalanı için hava durumu gözlemleri ve tahminleri (METAR ve TAF raporları).

Kullanılabilir istasyonlar harita üzerinde sarı ve kırmızı noktalarla gösterilir.

İstasyonun adını görmek için fareyi noktanın üzerinde gezdirin.

Sonrasında hava gözlem ve tahminlerini görmek için tıklayın.

Haritayı değiştirmek için: yaklaştırmak için siyah artı işaretli yeşil düğmeye ve uzaklaştırmak için de eksi işaretli düğmeye hızla tıklayın; bitişik haritalar için yeşil okları kullanın.


METAR-TAF: